Currently 82°F in Lake Elsinore, California, USA
82°F
106°F / 69°F
1 mph S
0.00"
Tuesday, June 28, 2022 9:02 PM PDT

Lake Elsinore, California Weather Summary
Last 36 Hours

Temperature Winds Hourly Humidity Dewpoint
Time Report Norm Report Norm Max Gusts Precip. Rpt. Norm Rpt. Norm Pressure
1Tue 09:02 PM  81.9°F  76°F  1 mph S  2 mph  4 mph  0.00"  34%  56%  50°F  58°F  N/A
Tue 09:00 PM  81.9°F  76°F  calm  2 mph  9 mph  0.00"  34%  55%  50°F  58°F  N/A
Tue 08:00 PM  87.2°F  81°F  1 mph S  2 mph  10 mph  0.00"  26%  46%  47°F  58°F  N/A
Tue 07:00 PM  92.9°F  87°F  4 mph SE  3 mph  17 mph  0.00"  12%  37%  32°F  56°F  N/A
Tue 06:00 PM  95.3°F  91°F  8 mph SE  4 mph  20 mph  0.00"  10%  32%  28°F  56°F  N/A
Tue 05:00 PM  99.2°F  94°F  9 mph SE  4 mph  23 mph  0.00"  7%  28%  21°F  55°F  N/A
Tue 04:00 PM  102.4°F  96°F  8 mph SE  5 mph  22 mph  0.00"  6%  26%  22°F  54°F  N/A
Tue 03:00 PM  104.4°F  96°F  8 mph SE  4 mph  20 mph  0.00"  6%  25%  21°F  54°F  N/A
Tue 02:00 PM  104.4°F  95°F  10 mph SE  2 mph  17 mph  0.00"  7%  26%  25°F  53°F  N/A
2Tue 01:09 PM  106.3°F  93°F  4 mph S  2 mph  8 mph  ----  6%  27%  22°F  53°F  N/A
Tue 01:00 PM  105.8°F  92°F  2 mph SE  2 mph  10 mph  0.00"  6%  28%  23°F  53°F  N/A
Tue 12:00 PM  101.0°F  89°F  calm  2 mph  6 mph  0.00"  7%  32%  24°F  54°F  N/A
Tue 11:00 AM  96.5°F  85°F  calm  2 mph  6 mph  0.00"  9%  39%  27°F  56°F  N/A
Tue 10:00 AM  93.4°F  80°F  3 mph S  2 mph  4 mph  0.00"  13%  49%  33°F  58°F  N/A
Tue 09:00 AM  86.9°F  75°F  1 mph S  1 mph  3 mph  0.00"  18%  59%  37°F  59°F  N/A
Tue 08:00 AM  77.1°F  69°F  calm  1 mph  5 mph  0.00"  39%  72%  49°F  60°F  N/A
Tue 07:00 AM  70.0°F  63°F  calm  1 mph  none  0.00"  46%  81%  48°F  57°F  N/A
3Tue 06:27 AM  69.1°F  62°F  calm  calm  none  ----  44%  81%  46°F  56°F  N/A
Tue 06:00 AM  69.3°F  62°F  calm  calm  none  0.00"  42%  80%  45°F  56°F  N/A
Tue 05:00 AM  70.3°F  63°F  calm  calm  none  0.00"  44%  79%  47°F  56°F  N/A
Tue 04:00 AM  70.8°F  64°F  calm  calm  none  0.00"  39%  77%  44°F  56°F  N/A
Tue 03:00 AM  72.1°F  65°F  calm  calm  none  0.00"  43%  76%  48°F  57°F  N/A
Tue 02:00 AM  73.8°F  66°F  calm  calm  none  0.00"  43%  74%  49°F  57°F  N/A
Tue 01:00 AM  75.8°F  67°F  calm  1 mph  none  0.00"  46%  73%  53°F  58°F  N/A
Tue 12:00 AM  77.7°F  69°F  calm  1 mph  2 mph  0.00"  44%  70%  53°F  58°F  N/A
Mon 11:00 PM  79.4°F  70°F  calm  1 mph  4 mph  0.00"  43%  67%  54°F  59°F  N/A
Mon 10:00 PM  81.3°F  73°F  calm  1 mph  2 mph  0.00"  42%  63%  56°F  59°F  N/A
Mon 09:00 PM  83.4°F  76°F  calm  2 mph  8 mph  0.00"  36%  56%  53°F  58°F  N/A
Mon 08:00 PM  90.1°F  80°F  3 mph S  2 mph  8 mph  0.00"  27%  47%  50°F  58°F  N/A
Mon 07:00 PM  97.2°F  86°F  3 mph S  3 mph  17 mph  0.00"  10%  37%  30°F  56°F  N/A
Mon 06:00 PM  100.5°F  91°F  5 mph SE  4 mph  20 mph  0.00"  7%  32%  22°F  56°F  N/A
Mon 05:00 PM  102.9°F  94°F  8 mph SE  4 mph  21 mph  0.00"  6%  28%  21°F  55°F  N/A
Mon 04:00 PM  104.6°F  96°F  8 mph SE  5 mph  21 mph  0.00"  6%  26%  22°F  55°F  N/A
Mon 03:00 PM  107.0°F  96°F  8 mph SE  4 mph  20 mph  0.00"  6%  25%  22°F  54°F  N/A
Mon 02:00 PM  107.6°F  95°F  6 mph S  2 mph  18 mph  0.00"  6%  26%  23°F  53°F  N/A
Mon 01:00 PM  105.2°F  92°F  3 mph S  2 mph  7 mph  0.00"  5%  28%  18°F  53°F  N/A
Mon 12:00 PM  101.6°F  89°F  calm  2 mph  7 mph  0.00"  9%  32%  31°F  55°F  N/A
Mon 11:00 AM  98.2°F  84°F  calm  2 mph  none  0.00"  16%  39%  42°F  56°F  N/A
Mon 10:00 AM  94.7°F  80°F  calm  2 mph  none  0.00"  21%  49%  47°F  58°F  N/A

  1. Current weather data. No green row appears if the current weather data is also the high or low for the current day.
  2. High temperature for the current day.
  3. Low temperature for the current day.

The Lake Elsinore, California weather pages are a service of WeatherCurrents. Lake Elsinore is located south of Corona and north of the Temecula Valley, in southwestern Riverside County, California.
Copyright ©2022  WeatherCurrents. All rights reserved. - Submit questions and comments - Privacy Policy

This page automatically refreshes every 10 minutes.